sensor_id;sensor_type;location;lat;lon;timestamp;temperature;humidity
51327;DHT22;37412;52.836;6.362;2024-01-30T00:02:37;5.90;99.90
51327;DHT22;37412;52.836;6.362;2024-01-30T00:05:24;5.90;99.90
51327;DHT22;37412;52.836;6.362;2024-01-30T00:08:10;5.90;99.90
51327;DHT22;37412;52.836;6.362;2024-01-30T00:10:56;5.90;99.90
51327;DHT22;37412;52.836;6.362;2024-01-30T00:13:45;5.90;99.90
51327;DHT22;37412;52.836;6.362;2024-01-30T00:16:32;6.50;99.90
51327;DHT22;37412;52.836;6.362;2024-01-30T00:19:18;5.90;99.90
51327;DHT22;37412;52.836;6.362;2024-01-30T00:22:04;6.00;99.90
51327;DHT22;37412;52.836;6.362;2024-01-30T00:24:50;5.90;99.90
51327;DHT22;37412;52.836;6.362;2024-01-30T00:27:36;6.00;99.90
51327;DHT22;37412;52.836;6.362;2024-01-30T00:30:21;5.90;99.90
51327;DHT22;37412;52.836;6.362;2024-01-30T00:33:08;5.90;99.90
51327;DHT22;37412;52.836;6.362;2024-01-30T00:35:54;5.90;99.90
51327;DHT22;37412;52.836;6.362;2024-01-30T00:38:41;5.90;99.90
51327;DHT22;37412;52.836;6.362;2024-01-30T00:41:27;5.90;99.90
51327;DHT22;37412;52.836;6.362;2024-01-30T00:44:13;6.30;99.90
51327;DHT22;37412;52.836;6.362;2024-01-30T00:46:59;5.90;99.90
51327;DHT22;37412;52.836;6.362;2024-01-30T00:49:48;7.00;99.90
51327;DHT22;37412;52.836;6.362;2024-01-30T00:52:34;6.00;99.90
51327;DHT22;37412;52.836;6.362;2024-01-30T00:55:20;6.00;99.90
51327;DHT22;37412;52.836;6.362;2024-01-30T00:58:06;5.90;99.90
51327;DHT22;37412;52.836;6.362;2024-01-30T01:00:52;5.90;99.90
51327;DHT22;37412;52.836;6.362;2024-01-30T01:03:38;6.00;99.90
51327;DHT22;37412;52.836;6.362;2024-01-30T01:06:27;6.00;99.90
51327;DHT22;37412;52.836;6.362;2024-01-30T01:09:16;6.00;99.90
51327;DHT22;37412;52.836;6.362;2024-01-30T01:12:03;6.00;99.90
51327;DHT22;37412;52.836;6.362;2024-01-30T01:14:50;6.00;99.90
51327;DHT22;37412;52.836;6.362;2024-01-30T01:17:40;6.00;99.90
51327;DHT22;37412;52.836;6.362;2024-01-30T01:20:26;6.00;99.90
51327;DHT22;37412;52.836;6.362;2024-01-30T01:23:12;6.10;99.90
51327;DHT22;37412;52.836;6.362;2024-01-30T01:25:57;6.50;99.90
51327;DHT22;37412;52.836;6.362;2024-01-30T01:28:45;6.10;99.90
51327;DHT22;37412;52.836;6.362;2024-01-30T01:31:31;6.10;99.90
51327;DHT22;37412;52.836;6.362;2024-01-30T01:34:17;6.10;99.90
51327;DHT22;37412;52.836;6.362;2024-01-30T01:37:03;6.10;99.90
51327;DHT22;37412;52.836;6.362;2024-01-30T01:39:52;6.20;99.90
51327;DHT22;37412;52.836;6.362;2024-01-30T01:42:38;6.20;99.90
51327;DHT22;37412;52.836;6.362;2024-01-30T01:45:25;6.70;99.90
51327;DHT22;37412;52.836;6.362;2024-01-30T01:48:12;7.00;99.90
51327;DHT22;37412;52.836;6.362;2024-01-30T01:50:59;6.30;99.90
51327;DHT22;37412;52.836;6.362;2024-01-30T01:53:45;7.10;99.90
51327;DHT22;37412;52.836;6.362;2024-01-30T01:56:33;6.30;99.90
51327;DHT22;37412;52.836;6.362;2024-01-30T01:59:20;6.30;99.90
51327;DHT22;37412;52.836;6.362;2024-01-30T02:02:08;6.30;99.90
51327;DHT22;37412;52.836;6.362;2024-01-30T02:04:57;6.30;99.90
51327;DHT22;37412;52.836;6.362;2024-01-30T02:07:44;6.90;99.90
51327;DHT22;37412;52.836;6.362;2024-01-30T02:10:29;6.40;99.90
51327;DHT22;37412;52.836;6.362;2024-01-30T02:13:16;7.50;99.90
51327;DHT22;37412;52.836;6.362;2024-01-30T02:16:02;6.40;99.90
51327;DHT22;37412;52.836;6.362;2024-01-30T02:18:49;6.40;99.90
51327;DHT22;37412;52.836;6.362;2024-01-30T02:21:36;6.40;99.90
51327;DHT22;37412;52.836;6.362;2024-01-30T02:24:22;6.30;99.90
51327;DHT22;37412;52.836;6.362;2024-01-30T02:27:08;6.30;99.90
51327;DHT22;37412;52.836;6.362;2024-01-30T02:29:54;6.30;99.90
51327;DHT22;37412;52.836;6.362;2024-01-30T02:32:40;6.30;99.90
51327;DHT22;37412;52.836;6.362;2024-01-30T02:35:26;6.30;99.90
51327;DHT22;37412;52.836;6.362;2024-01-30T02:38:12;6.20;99.90
51327;DHT22;37412;52.836;6.362;2024-01-30T02:41:00;6.30;99.90
51327;DHT22;37412;52.836;6.362;2024-01-30T02:43:46;6.90;99.90
51327;DHT22;37412;52.836;6.362;2024-01-30T02:46:32;6.30;99.90
51327;DHT22;37412;52.836;6.362;2024-01-30T02:49:20;6.30;99.90
51327;DHT22;37412;52.836;6.362;2024-01-30T02:52:07;6.30;99.90
51327;DHT22;37412;52.836;6.362;2024-01-30T02:54:53;6.30;99.90
51327;DHT22;37412;52.836;6.362;2024-01-30T02:57:39;6.30;99.90
51327;DHT22;37412;52.836;6.362;2024-01-30T03:00:25;6.30;99.90
51327;DHT22;37412;52.836;6.362;2024-01-30T03:03:11;6.30;99.90
51327;DHT22;37412;52.836;6.362;2024-01-30T03:05:57;6.30;99.90
51327;DHT22;37412;52.836;6.362;2024-01-30T03:08:43;6.40;99.90
51327;DHT22;37412;52.836;6.362;2024-01-30T03:11:29;6.30;99.90
51327;DHT22;37412;52.836;6.362;2024-01-30T03:14:15;6.20;99.90
51327;DHT22;37412;52.836;6.362;2024-01-30T03:17:02;6.20;99.90
51327;DHT22;37412;52.836;6.362;2024-01-30T03:19:48;6.20;99.90
51327;DHT22;37412;52.836;6.362;2024-01-30T03:22:34;6.20;99.90
51327;DHT22;37412;52.836;6.362;2024-01-30T03:25:23;6.20;99.90
51327;DHT22;37412;52.836;6.362;2024-01-30T03:28:09;6.20;99.90
51327;DHT22;37412;52.836;6.362;2024-01-30T03:30:55;6.20;99.90
51327;DHT22;37412;52.836;6.362;2024-01-30T03:33:41;6.20;99.90
51327;DHT22;37412;52.836;6.362;2024-01-30T03:36:28;6.20;99.90
51327;DHT22;37412;52.836;6.362;2024-01-30T03:39:14;6.20;99.90
51327;DHT22;37412;52.836;6.362;2024-01-30T03:42:03;6.40;99.90
51327;DHT22;37412;52.836;6.362;2024-01-30T03:44:49;6.30;99.90
51327;DHT22;37412;52.836;6.362;2024-01-30T03:47:39;6.30;99.90
51327;DHT22;37412;52.836;6.362;2024-01-30T03:50:24;6.40;99.90
51327;DHT22;37412;52.836;6.362;2024-01-30T03:53:10;6.40;99.90
51327;DHT22;37412;52.836;6.362;2024-01-30T03:55:57;6.40;99.90
51327;DHT22;37412;52.836;6.362;2024-01-30T03:58:43;6.40;99.90
51327;DHT22;37412;52.836;6.362;2024-01-30T04:01:28;6.40;99.90
51327;DHT22;37412;52.836;6.362;2024-01-30T04:04:14;6.50;99.90
51327;DHT22;37412;52.836;6.362;2024-01-30T04:07:00;6.50;99.90
51327;DHT22;37412;52.836;6.362;2024-01-30T04:09:46;6.60;99.90
51327;DHT22;37412;52.836;6.362;2024-01-30T04:12:32;6.60;99.90
51327;DHT22;37412;52.836;6.362;2024-01-30T04:15:18;6.60;99.90
51327;DHT22;37412;52.836;6.362;2024-01-30T04:18:04;7.00;99.90
51327;DHT22;37412;52.836;6.362;2024-01-30T04:20:50;6.60;99.90
51327;DHT22;37412;52.836;6.362;2024-01-30T04:23:36;7.20;99.90
51327;DHT22;37412;52.836;6.362;2024-01-30T04:26:22;6.70;99.90
51327;DHT22;37412;52.836;6.362;2024-01-30T04:29:09;6.70;99.90
51327;DHT22;37412;52.836;6.362;2024-01-30T04:31:56;6.00;99.90
51327;DHT22;37412;52.836;6.362;2024-01-30T04:34:42;6.70;99.90
51327;DHT22;37412;52.836;6.362;2024-01-30T04:37:31;6.70;99.90
51327;DHT22;37412;52.836;6.362;2024-01-30T04:40:17;5.60;99.90
51327;DHT22;37412;52.836;6.362;2024-01-30T04:43:03;6.80;99.90
51327;DHT22;37412;52.836;6.362;2024-01-30T04:45:49;6.80;99.90
51327;DHT22;37412;52.836;6.362;2024-01-30T04:48:35;7.10;99.90
51327;DHT22;37412;52.836;6.362;2024-01-30T04:51:21;6.80;99.90
51327;DHT22;37412;52.836;6.362;2024-01-30T04:54:07;6.90;99.90
51327;DHT22;37412;52.836;6.362;2024-01-30T04:56:53;6.90;99.90
51327;DHT22;37412;52.836;6.362;2024-01-30T04:59:39;7.00;99.90
51327;DHT22;37412;52.836;6.362;2024-01-30T05:02:25;7.30;99.90
51327;DHT22;37412;52.836;6.362;2024-01-30T05:05:11;7.00;99.90
51327;DHT22;37412;52.836;6.362;2024-01-30T05:07:57;7.10;99.90
51327;DHT22;37412;52.836;6.362;2024-01-30T05:10:43;7.10;99.90
51327;DHT22;37412;52.836;6.362;2024-01-30T05:13:32;8.20;99.90
51327;DHT22;37412;52.836;6.362;2024-01-30T05:16:18;7.10;99.90
51327;DHT22;37412;52.836;6.362;2024-01-30T05:19:04;7.10;99.90
51327;DHT22;37412;52.836;6.362;2024-01-30T05:21:50;7.10;99.90
51327;DHT22;37412;52.836;6.362;2024-01-30T05:24:37;7.10;99.90
51327;DHT22;37412;52.836;6.362;2024-01-30T05:27:26;7.10;99.90
51327;DHT22;37412;52.836;6.362;2024-01-30T05:30:12;7.10;99.90
51327;DHT22;37412;52.836;6.362;2024-01-30T05:32:58;7.10;99.90
51327;DHT22;37412;52.836;6.362;2024-01-30T05:35:44;7.20;99.90
51327;DHT22;37412;52.836;6.362;2024-01-30T05:38:30;7.20;99.90
51327;DHT22;37412;52.836;6.362;2024-01-30T05:41:17;7.20;99.90
51327;DHT22;37412;52.836;6.362;2024-01-30T05:44:03;7.20;99.90
51327;DHT22;37412;52.836;6.362;2024-01-30T05:46:49;7.20;99.90
51327;DHT22;37412;52.836;6.362;2024-01-30T05:49:35;7.20;99.90
51327;DHT22;37412;52.836;6.362;2024-01-30T05:52:22;7.20;99.90
51327;DHT22;37412;52.836;6.362;2024-01-30T05:55:08;8.10;99.90
51327;DHT22;37412;52.836;6.362;2024-01-30T05:57:57;7.60;99.90
51327;DHT22;37412;52.836;6.362;2024-01-30T06:00:43;7.20;99.90
51327;DHT22;37412;52.836;6.362;2024-01-30T06:03:29;7.20;99.90
51327;DHT22;37412;52.836;6.362;2024-01-30T06:06:19;7.20;99.90
51327;DHT22;37412;52.836;6.362;2024-01-30T06:09:05;7.20;99.90
51327;DHT22;37412;52.836;6.362;2024-01-30T06:11:52;7.20;99.90
51327;DHT22;37412;52.836;6.362;2024-01-30T06:14:38;7.20;99.90
51327;DHT22;37412;52.836;6.362;2024-01-30T06:17:26;7.20;99.90
51327;DHT22;37412;52.836;6.362;2024-01-30T06:20:12;7.20;99.90
51327;DHT22;37412;52.836;6.362;2024-01-30T06:23:01;7.20;99.90
51327;DHT22;37412;52.836;6.362;2024-01-30T06:25:46;7.10;99.90
51327;DHT22;37412;52.836;6.362;2024-01-30T06:28:33;7.10;99.90
51327;DHT22;37412;52.836;6.362;2024-01-30T06:31:19;7.10;99.90
51327;DHT22;37412;52.836;6.362;2024-01-30T06:34:04;7.10;99.90
51327;DHT22;37412;52.836;6.362;2024-01-30T06:36:50;7.70;99.90
51327;DHT22;37412;52.836;6.362;2024-01-30T06:39:36;7.10;99.90
51327;DHT22;37412;52.836;6.362;2024-01-30T06:42:22;7.10;99.90
51327;DHT22;37412;52.836;6.362;2024-01-30T06:45:09;8.10;99.90
51327;DHT22;37412;52.836;6.362;2024-01-30T06:47:55;7.10;99.90
51327;DHT22;37412;52.836;6.362;2024-01-30T06:50:41;7.10;99.90
51327;DHT22;37412;52.836;6.362;2024-01-30T06:53:27;7.10;99.90
51327;DHT22;37412;52.836;6.362;2024-01-30T06:56:13;7.90;99.90
51327;DHT22;37412;52.836;6.362;2024-01-30T06:58:59;8.20;99.90
51327;DHT22;37412;52.836;6.362;2024-01-30T07:01:45;7.20;99.90
51327;DHT22;37412;52.836;6.362;2024-01-30T07:04:31;7.20;99.90
51327;DHT22;37412;52.836;6.362;2024-01-30T07:07:17;7.20;99.90
51327;DHT22;37412;52.836;6.362;2024-01-30T07:10:05;7.30;99.90
51327;DHT22;37412;52.836;6.362;2024-01-30T07:12:51;7.30;99.90
51327;DHT22;37412;52.836;6.362;2024-01-30T07:15:37;7.30;99.90
51327;DHT22;37412;52.836;6.362;2024-01-30T07:18:23;7.30;99.90
51327;DHT22;37412;52.836;6.362;2024-01-30T07:21:09;7.30;99.90
51327;DHT22;37412;52.836;6.362;2024-01-30T07:23:55;7.40;99.90
51327;DHT22;37412;52.836;6.362;2024-01-30T07:26:41;7.30;99.90
51327;DHT22;37412;52.836;6.362;2024-01-30T07:29:27;7.40;99.90
51327;DHT22;37412;52.836;6.362;2024-01-30T07:32:13;8.40;99.90
51327;DHT22;37412;52.836;6.362;2024-01-30T07:34:59;7.30;99.90
51327;DHT22;37412;52.836;6.362;2024-01-30T07:37:54;8.30;99.90
51327;DHT22;37412;52.836;6.362;2024-01-30T07:40:40;7.30;99.90
51327;DHT22;37412;52.836;6.362;2024-01-30T07:43:26;7.40;99.90
51327;DHT22;37412;52.836;6.362;2024-01-30T07:46:12;7.60;99.90
51327;DHT22;37412;52.836;6.362;2024-01-30T07:48:58;7.30;99.90
51327;DHT22;37412;52.836;6.362;2024-01-30T07:51:45;7.40;99.90
51327;DHT22;37412;52.836;6.362;2024-01-30T07:54:32;7.40;99.90
51327;DHT22;37412;52.836;6.362;2024-01-30T07:57:19;7.40;99.90
51327;DHT22;37412;52.836;6.362;2024-01-30T08:00:07;8.10;99.90
51327;DHT22;37412;52.836;6.362;2024-01-30T08:02:53;7.50;99.90
51327;DHT22;37412;52.836;6.362;2024-01-30T08:05:41;7.50;99.90
51327;DHT22;37412;52.836;6.362;2024-01-30T08:08:27;7.50;99.90
51327;DHT22;37412;52.836;6.362;2024-01-30T08:11:16;7.50;99.90
51327;DHT22;37412;52.836;6.362;2024-01-30T08:14:04;7.80;99.90
51327;DHT22;37412;52.836;6.362;2024-01-30T08:16:50;7.60;99.90
51327;DHT22;37412;52.836;6.362;2024-01-30T08:19:36;8.20;99.90
51327;DHT22;37412;52.836;6.362;2024-01-30T08:22:24;7.60;99.90
51327;DHT22;37412;52.836;6.362;2024-01-30T08:25:18;7.70;99.90
51327;DHT22;37412;52.836;6.362;2024-01-30T08:28:04;7.70;99.90
51327;DHT22;37412;52.836;6.362;2024-01-30T08:30:54;7.80;99.90
51327;DHT22;37412;52.836;6.362;2024-01-30T08:33:43;7.80;99.90
51327;DHT22;37412;52.836;6.362;2024-01-30T08:36:29;7.80;99.90
51327;DHT22;37412;52.836;6.362;2024-01-30T08:39:15;7.80;99.90
51327;DHT22;37412;52.836;6.362;2024-01-30T08:42:03;7.90;99.90
51327;DHT22;37412;52.836;6.362;2024-01-30T08:44:49;7.90;99.90
51327;DHT22;37412;52.836;6.362;2024-01-30T08:47:37;8.00;99.90
51327;DHT22;37412;52.836;6.362;2024-01-30T08:50:23;8.00;99.90
51327;DHT22;37412;52.836;6.362;2024-01-30T08:53:09;8.10;99.90
51327;DHT22;37412;52.836;6.362;2024-01-30T08:55:55;8.90;99.90
51327;DHT22;37412;52.836;6.362;2024-01-30T08:58:44;8.20;99.90
51327;DHT22;37412;52.836;6.362;2024-01-30T09:01:33;8.30;99.90
51327;DHT22;37412;52.836;6.362;2024-01-30T09:04:19;8.30;99.90
51327;DHT22;37412;52.836;6.362;2024-01-30T09:07:05;8.40;99.90
51327;DHT22;37412;52.836;6.362;2024-01-30T09:09:57;9.20;99.90
51327;DHT22;37412;52.836;6.362;2024-01-30T09:12:43;8.40;99.90
51327;DHT22;37412;52.836;6.362;2024-01-30T09:15:29;9.30;99.90
51327;DHT22;37412;52.836;6.362;2024-01-30T09:18:16;8.60;99.90
51327;DHT22;37412;52.836;6.362;2024-01-30T09:21:02;8.60;99.90
51327;DHT22;37412;52.836;6.362;2024-01-30T09:23:48;8.70;99.90
51327;DHT22;37412;52.836;6.362;2024-01-30T09:26:34;9.90;99.90
51327;DHT22;37412;52.836;6.362;2024-01-30T09:29:21;8.80;99.90
51327;DHT22;37412;52.836;6.362;2024-01-30T09:32:07;8.90;99.90
51327;DHT22;37412;52.836;6.362;2024-01-30T09:34:56;8.90;99.90
51327;DHT22;37412;52.836;6.362;2024-01-30T09:37:43;9.30;99.90
51327;DHT22;37412;52.836;6.362;2024-01-30T09:40:29;9.00;99.90
51327;DHT22;37412;52.836;6.362;2024-01-30T09:43:18;9.10;99.90
51327;DHT22;37412;52.836;6.362;2024-01-30T09:46:12;9.70;99.90
51327;DHT22;37412;52.836;6.362;2024-01-30T09:49:03;9.10;99.90
51327;DHT22;37412;52.836;6.362;2024-01-30T09:51:53;9.10;99.90
51327;DHT22;37412;52.836;6.362;2024-01-30T09:54:40;9.10;99.90
51327;DHT22;37412;52.836;6.362;2024-01-30T09:57:27;9.10;99.90
51327;DHT22;37412;52.836;6.362;2024-01-30T10:00:13;9.20;99.90
51327;DHT22;37412;52.836;6.362;2024-01-30T10:02:59;9.10;99.90
51327;DHT22;37412;52.836;6.362;2024-01-30T10:05:53;9.30;99.90
51327;DHT22;37412;52.836;6.362;2024-01-30T10:08:42;9.30;99.90
51327;DHT22;37412;52.836;6.362;2024-01-30T10:11:28;9.30;99.90
51327;DHT22;37412;52.836;6.362;2024-01-30T10:14:15;10.60;99.90
51327;DHT22;37412;52.836;6.362;2024-01-30T10:17:01;9.40;99.90
51327;DHT22;37412;52.836;6.362;2024-01-30T10:19:47;9.50;99.90
51327;DHT22;37412;52.836;6.362;2024-01-30T10:22:33;9.90;99.90
51327;DHT22;37412;52.836;6.362;2024-01-30T10:25:21;9.60;99.90
51327;DHT22;37412;52.836;6.362;2024-01-30T10:28:08;9.80;99.90
51327;DHT22;37412;52.836;6.362;2024-01-30T10:30:59;9.60;99.90
51327;DHT22;37412;52.836;6.362;2024-01-30T10:33:45;9.60;99.90
51327;DHT22;37412;52.836;6.362;2024-01-30T10:36:39;9.70;99.90
51327;DHT22;37412;52.836;6.362;2024-01-30T10:39:29;9.70;99.90
51327;DHT22;37412;52.836;6.362;2024-01-30T10:42:18;9.70;99.90
51327;DHT22;37412;52.836;6.362;2024-01-30T10:45:14;10.60;99.90
51327;DHT22;37412;52.836;6.362;2024-01-30T10:48:03;9.70;99.90
51327;DHT22;37412;52.836;6.362;2024-01-30T10:50:53;9.70;99.90
51327;DHT22;37412;52.836;6.362;2024-01-30T10:53:41;9.70;99.90
51327;DHT22;37412;52.836;6.362;2024-01-30T10:56:33;9.80;99.90
51327;DHT22;37412;52.836;6.362;2024-01-30T10:59:24;9.70;99.90
51327;DHT22;37412;52.836;6.362;2024-01-30T11:02:11;10.40;99.90
51327;DHT22;37412;52.836;6.362;2024-01-30T11:04:59;9.80;99.90
51327;DHT22;37412;52.836;6.362;2024-01-30T11:07:46;9.80;99.90
51327;DHT22;37412;52.836;6.362;2024-01-30T11:10:32;10.50;99.90
51327;DHT22;37412;52.836;6.362;2024-01-30T11:13:19;10.00;99.90
51327;DHT22;37412;52.836;6.362;2024-01-30T11:16:05;9.90;99.90
51327;DHT22;37412;52.836;6.362;2024-01-30T11:19:00;9.90;99.90
51327;DHT22;37412;52.836;6.362;2024-01-30T11:21:50;10.00;99.90
51327;DHT22;37412;52.836;6.362;2024-01-30T11:24:42;10.00;99.90
51327;DHT22;37412;52.836;6.362;2024-01-30T11:27:31;10.00;99.90
51327;DHT22;37412;52.836;6.362;2024-01-30T11:30:28;10.20;99.90
51327;DHT22;37412;52.836;6.362;2024-01-30T11:33:16;10.20;99.90
51327;DHT22;37412;52.836;6.362;2024-01-30T11:36:16;10.20;99.90
51327;DHT22;37412;52.836;6.362;2024-01-30T11:39:03;10.30;99.90
51327;DHT22;37412;52.836;6.362;2024-01-30T11:41:53;10.40;99.90
51327;DHT22;37412;52.836;6.362;2024-01-30T11:44:39;10.40;99.90
51327;DHT22;37412;52.836;6.362;2024-01-30T11:47:28;10.40;99.90
51327;DHT22;37412;52.836;6.362;2024-01-30T11:50:15;10.40;99.90
51327;DHT22;37412;52.836;6.362;2024-01-30T11:53:01;10.40;99.90
51327;DHT22;37412;52.836;6.362;2024-01-30T11:55:51;10.40;99.90
51327;DHT22;37412;52.836;6.362;2024-01-30T11:58:37;10.30;99.90
51327;DHT22;37412;52.836;6.362;2024-01-30T12:01:23;10.30;99.90
51327;DHT22;37412;52.836;6.362;2024-01-30T12:04:09;10.20;99.90
51327;DHT22;37412;52.836;6.362;2024-01-30T12:06:55;10.10;99.90
51327;DHT22;37412;52.836;6.362;2024-01-30T12:09:42;10.00;99.90
51327;DHT22;37412;52.836;6.362;2024-01-30T12:12:29;10.30;99.90
51327;DHT22;37412;52.836;6.362;2024-01-30T12:15:18;10.10;99.90
51327;DHT22;37412;52.836;6.362;2024-01-30T12:18:07;10.00;99.90
51327;DHT22;37412;52.836;6.362;2024-01-30T12:20:59;10.00;99.90
51327;DHT22;37412;52.836;6.362;2024-01-30T12:23:47;10.20;99.90
51327;DHT22;37412;52.836;6.362;2024-01-30T12:26:33;10.00;99.90
51327;DHT22;37412;52.836;6.362;2024-01-30T12:29:20;10.10;99.90
51327;DHT22;37412;52.836;6.362;2024-01-30T12:32:07;10.00;99.90
51327;DHT22;37412;52.836;6.362;2024-01-30T12:34:56;9.90;99.90
51327;DHT22;37412;52.836;6.362;2024-01-30T12:37:44;9.90;99.90
51327;DHT22;37412;52.836;6.362;2024-01-30T12:40:33;10.40;99.90
51327;DHT22;37412;52.836;6.362;2024-01-30T12:43:24;9.80;99.90
51327;DHT22;37412;52.836;6.362;2024-01-30T12:46:10;9.90;99.90
51327;DHT22;37412;52.836;6.362;2024-01-30T12:48:59;9.90;99.90
51327;DHT22;37412;52.836;6.362;2024-01-30T12:51:45;9.80;99.90
51327;DHT22;37412;52.836;6.362;2024-01-30T12:54:31;9.80;99.90
51327;DHT22;37412;52.836;6.362;2024-01-30T12:57:18;9.70;99.90
51327;DHT22;37412;52.836;6.362;2024-01-30T13:00:08;9.70;99.90
51327;DHT22;37412;52.836;6.362;2024-01-30T13:02:54;9.60;99.90
51327;DHT22;37412;52.836;6.362;2024-01-30T13:05:40;9.60;99.90
51327;DHT22;37412;52.836;6.362;2024-01-30T13:08:26;9.60;99.90
51327;DHT22;37412;52.836;6.362;2024-01-30T13:11:12;9.50;99.90
51327;DHT22;37412;52.836;6.362;2024-01-30T13:13:58;9.60;99.90
51327;DHT22;37412;52.836;6.362;2024-01-30T13:16:44;9.50;99.90
51327;DHT22;37412;52.836;6.362;2024-01-30T13:19:31;9.90;99.90
51327;DHT22;37412;52.836;6.362;2024-01-30T13:22:17;9.40;99.90
51327;DHT22;37412;52.836;6.362;2024-01-30T13:25:03;9.40;99.90
51327;DHT22;37412;52.836;6.362;2024-01-30T13:27:50;9.30;99.90
51327;DHT22;37412;52.836;6.362;2024-01-30T13:30:36;9.40;99.90
51327;DHT22;37412;52.836;6.362;2024-01-30T13:33:23;9.40;99.90
51327;DHT22;37412;52.836;6.362;2024-01-30T13:36:10;9.40;99.90
51327;DHT22;37412;52.836;6.362;2024-01-30T13:38:57;9.40;99.90
51327;DHT22;37412;52.836;6.362;2024-01-30T13:41:43;9.70;99.90
51327;DHT22;37412;52.836;6.362;2024-01-30T13:44:29;9.50;99.90
51327;DHT22;37412;52.836;6.362;2024-01-30T13:47:17;9.40;99.90
51327;DHT22;37412;52.836;6.362;2024-01-30T13:50:05;9.50;99.90
51327;DHT22;37412;52.836;6.362;2024-01-30T13:52:51;9.50;99.90
51327;DHT22;37412;52.836;6.362;2024-01-30T13:55:37;9.40;99.90
51327;DHT22;37412;52.836;6.362;2024-01-30T13:58:25;10.60;99.90
51327;DHT22;37412;52.836;6.362;2024-01-30T14:01:11;9.50;99.90
51327;DHT22;37412;52.836;6.362;2024-01-30T14:03:57;10.60;99.90
51327;DHT22;37412;52.836;6.362;2024-01-30T14:06:46;9.40;99.90
51327;DHT22;37412;52.836;6.362;2024-01-30T14:09:32;9.40;99.90
51327;DHT22;37412;52.836;6.362;2024-01-30T14:12:18;9.30;99.90
51327;DHT22;37412;52.836;6.362;2024-01-30T14:15:04;9.70;99.90
51327;DHT22;37412;52.836;6.362;2024-01-30T14:17:50;9.20;99.90
51327;DHT22;37412;52.836;6.362;2024-01-30T14:20:36;9.10;99.90
51327;DHT22;37412;52.836;6.362;2024-01-30T14:23:24;9.10;99.90
51327;DHT22;37412;52.836;6.362;2024-01-30T14:26:10;9.00;99.90
51327;DHT22;37412;52.836;6.362;2024-01-30T14:28:56;9.00;99.90
51327;DHT22;37412;52.836;6.362;2024-01-30T14:31:42;9.00;99.90
51327;DHT22;37412;52.836;6.362;2024-01-30T14:34:31;8.90;99.90
51327;DHT22;37412;52.836;6.362;2024-01-30T14:37:17;8.90;99.90
51327;DHT22;37412;52.836;6.362;2024-01-30T14:40:03;9.70;99.90
51327;DHT22;37412;52.836;6.362;2024-01-30T14:42:53;8.80;99.90
51327;DHT22;37412;52.836;6.362;2024-01-30T14:45:39;8.70;99.90
51327;DHT22;37412;52.836;6.362;2024-01-30T14:48:25;8.70;99.90
51327;DHT22;37412;52.836;6.362;2024-01-30T14:51:11;8.70;99.90
51327;DHT22;37412;52.836;6.362;2024-01-30T14:53:57;9.00;99.90
51327;DHT22;37412;52.836;6.362;2024-01-30T14:56:43;8.60;99.90
51327;DHT22;37412;52.836;6.362;2024-01-30T14:59:28;8.60;99.90
51327;DHT22;37412;52.836;6.362;2024-01-30T15:02:14;8.50;99.90
51327;DHT22;37412;52.836;6.362;2024-01-30T15:05:19;8.50;99.90
51327;DHT22;37412;52.836;6.362;2024-01-30T15:08:05;8.70;99.90
51327;DHT22;37412;52.836;6.362;2024-01-30T15:10:51;8.40;99.90
51327;DHT22;37412;52.836;6.362;2024-01-30T15:13:40;9.10;99.90
51327;DHT22;37412;52.836;6.362;2024-01-30T15:16:30;8.50;99.90
51327;DHT22;37412;52.836;6.362;2024-01-30T15:19:19;8.30;99.90
51327;DHT22;37412;52.836;6.362;2024-01-30T15:22:05;8.30;99.90
51327;DHT22;37412;52.836;6.362;2024-01-30T15:24:51;8.20;99.90
51327;DHT22;37412;52.836;6.362;2024-01-30T15:27:38;8.20;99.90
51327;DHT22;37412;52.836;6.362;2024-01-30T15:30:25;8.20;99.90
51327;DHT22;37412;52.836;6.362;2024-01-30T15:33:11;9.30;99.90
51327;DHT22;37412;52.836;6.362;2024-01-30T15:35:57;8.80;99.90
51327;DHT22;37412;52.836;6.362;2024-01-30T15:38:44;8.10;99.90
51327;DHT22;37412;52.836;6.362;2024-01-30T15:41:33;8.10;99.90
51327;DHT22;37412;52.836;6.362;2024-01-30T15:44:19;8.10;99.90
51327;DHT22;37412;52.836;6.362;2024-01-30T15:47:05;8.10;99.90
51327;DHT22;37412;52.836;6.362;2024-01-30T15:49:51;8.10;99.90
51327;DHT22;37412;52.836;6.362;2024-01-30T15:52:37;8.10;99.90
51327;DHT22;37412;52.836;6.362;2024-01-30T15:55:23;8.10;99.90
51327;DHT22;37412;52.836;6.362;2024-01-30T15:58:09;8.10;99.90
51327;DHT22;37412;52.836;6.362;2024-01-30T16:00:55;8.10;99.90
51327;DHT22;37412;52.836;6.362;2024-01-30T16:03:41;8.10;99.90
51327;DHT22;37412;52.836;6.362;2024-01-30T16:06:27;8.10;99.90
51327;DHT22;37412;52.836;6.362;2024-01-30T16:09:13;8.10;99.90
51327;DHT22;37412;52.836;6.362;2024-01-30T16:12:00;8.10;99.90
51327;DHT22;37412;52.836;6.362;2024-01-30T16:14:46;8.10;99.90
51327;DHT22;37412;52.836;6.362;2024-01-30T16:17:32;8.80;99.90
51327;DHT22;37412;52.836;6.362;2024-01-30T16:20:18;8.10;99.90
51327;DHT22;37412;52.836;6.362;2024-01-30T16:23:04;8.10;99.90
51327;DHT22;37412;52.836;6.362;2024-01-30T16:25:50;8.30;99.90
51327;DHT22;37412;52.836;6.362;2024-01-30T16:28:36;8.00;99.90
51327;DHT22;37412;52.836;6.362;2024-01-30T16:31:22;9.40;99.90
51327;DHT22;37412;52.836;6.362;2024-01-30T16:34:09;7.90;99.90
51327;DHT22;37412;52.836;6.362;2024-01-30T16:36:57;7.90;99.90
51327;DHT22;37412;52.836;6.362;2024-01-30T16:39:43;7.90;99.90
51327;DHT22;37412;52.836;6.362;2024-01-30T16:42:31;7.90;99.90
51327;DHT22;37412;52.836;6.362;2024-01-30T16:45:17;7.90;99.90
51327;DHT22;37412;52.836;6.362;2024-01-30T16:48:06;7.90;99.90
51327;DHT22;37412;52.836;6.362;2024-01-30T16:50:52;7.90;99.90
51327;DHT22;37412;52.836;6.362;2024-01-30T16:53:38;7.90;99.90
51327;DHT22;37412;52.836;6.362;2024-01-30T16:56:24;7.90;99.90
51327;DHT22;37412;52.836;6.362;2024-01-30T16:59:10;7.80;99.90
51327;DHT22;37412;52.836;6.362;2024-01-30T17:01:56;7.80;99.90
51327;DHT22;37412;52.836;6.362;2024-01-30T17:04:42;7.80;99.90
51327;DHT22;37412;52.836;6.362;2024-01-30T17:07:28;7.90;99.90
51327;DHT22;37412;52.836;6.362;2024-01-30T17:10:19;7.80;99.90
51327;DHT22;37412;52.836;6.362;2024-01-30T17:13:05;7.70;99.90
51327;DHT22;37412;52.836;6.362;2024-01-30T17:15:51;8.40;99.90
51327;DHT22;37412;52.836;6.362;2024-01-30T17:18:41;8.30;99.90
51327;DHT22;37412;52.836;6.362;2024-01-30T17:21:27;8.60;99.90
51327;DHT22;37412;52.836;6.362;2024-01-30T17:24:14;8.60;99.90
51327;DHT22;37412;52.836;6.362;2024-01-30T17:27:01;7.90;99.90
51327;DHT22;37412;52.836;6.362;2024-01-30T17:29:47;7.70;99.90
51327;DHT22;37412;52.836;6.362;2024-01-30T17:32:33;7.90;99.90
51327;DHT22;37412;52.836;6.362;2024-01-30T17:35:19;7.60;99.90
51327;DHT22;37412;52.836;6.362;2024-01-30T17:38:05;7.60;99.90
51327;DHT22;37412;52.836;6.362;2024-01-30T17:40:51;7.70;99.90
51327;DHT22;37412;52.836;6.362;2024-01-30T17:43:37;7.50;99.90
51327;DHT22;37412;52.836;6.362;2024-01-30T17:46:24;7.50;99.90
51327;DHT22;37412;52.836;6.362;2024-01-30T17:49:10;8.40;99.90
51327;DHT22;37412;52.836;6.362;2024-01-30T17:51:56;7.40;99.90